sensor_id;sensor_type;location;lat;lon;timestamp;P1;durP1;ratioP1;P2;durP2;ratioP2
82242;SDS011;71844;51.528;4.442;2023-09-30T00:00:03;5.75;;;2.13;;
82242;SDS011;71844;51.528;4.442;2023-09-30T00:02:35;8.55;;;2.13;;
82242;SDS011;71844;51.528;4.442;2023-09-30T00:05:02;6.45;;;2.42;;
82242;SDS011;71844;51.528;4.442;2023-09-30T00:07:30;5.13;;;1.95;;
82242;SDS011;71844;51.528;4.442;2023-09-30T00:09:57;6.07;;;2.15;;
82242;SDS011;71844;51.528;4.442;2023-09-30T00:12:25;8.80;;;2.67;;
82242;SDS011;71844;51.528;4.442;2023-09-30T00:14:53;4.53;;;2.65;;
82242;SDS011;71844;51.528;4.442;2023-09-30T00:17:20;5.72;;;2.20;;
82242;SDS011;71844;51.528;4.442;2023-09-30T00:19:48;6.25;;;2.15;;
82242;SDS011;71844;51.528;4.442;2023-09-30T00:22:15;5.00;;;2.17;;
82242;SDS011;71844;51.528;4.442;2023-09-30T00:24:41;6.20;;;2.20;;
82242;SDS011;71844;51.528;4.442;2023-09-30T00:27:08;5.10;;;2.20;;
82242;SDS011;71844;51.528;4.442;2023-09-30T00:29:36;5.15;;;1.92;;
82242;SDS011;71844;51.528;4.442;2023-09-30T00:32:03;5.40;;;1.92;;
82242;SDS011;71844;51.528;4.442;2023-09-30T00:34:34;5.80;;;1.90;;
82242;SDS011;71844;51.528;4.442;2023-09-30T00:37:01;4.60;;;2.25;;
82242;SDS011;71844;51.528;4.442;2023-09-30T00:39:28;4.60;;;1.90;;
82242;SDS011;71844;51.528;4.442;2023-09-30T00:41:57;5.22;;;2.20;;
82242;SDS011;71844;51.528;4.442;2023-09-30T00:44:29;4.95;;;1.80;;
82242;SDS011;71844;51.528;4.442;2023-09-30T00:46:57;6.25;;;2.33;;
82242;SDS011;71844;51.528;4.442;2023-09-30T00:49:25;4.35;;;1.85;;
82242;SDS011;71844;51.528;4.442;2023-09-30T00:51:52;4.43;;;1.92;;
82242;SDS011;71844;51.528;4.442;2023-09-30T00:54:21;4.82;;;2.33;;
82242;SDS011;71844;51.528;4.442;2023-09-30T00:56:51;6.05;;;2.33;;
82242;SDS011;71844;51.528;4.442;2023-09-30T00:59:22;5.50;;;2.03;;
82242;SDS011;71844;51.528;4.442;2023-09-30T01:04:27;5.82;;;1.88;;
82242;SDS011;71844;51.528;4.442;2023-09-30T01:06:54;4.97;;;1.65;;
82242;SDS011;71844;51.528;4.442;2023-09-30T01:09:23;4.25;;;1.98;;
82242;SDS011;71844;51.528;4.442;2023-09-30T01:11:51;4.63;;;1.83;;
82242;SDS011;71844;51.528;4.442;2023-09-30T01:14:28;5.85;;;2.10;;
82242;SDS011;71844;51.528;4.442;2023-09-30T01:16:58;3.85;;;1.80;;
82242;SDS011;71844;51.528;4.442;2023-09-30T01:19:25;4.30;;;1.63;;
82242;SDS011;71844;51.528;4.442;2023-09-30T01:21:53;6.35;;;2.00;;
82242;SDS011;71844;51.528;4.442;2023-09-30T01:24:26;5.65;;;1.95;;
82242;SDS011;71844;51.528;4.442;2023-09-30T01:26:53;5.47;;;2.25;;
82242;SDS011;71844;51.528;4.442;2023-09-30T01:29:21;6.00;;;2.05;;
82242;SDS011;71844;51.528;4.442;2023-09-30T01:31:48;5.97;;;2.22;;
82242;SDS011;71844;51.528;4.442;2023-09-30T01:34:16;5.40;;;2.15;;
82242;SDS011;71844;51.528;4.442;2023-09-30T01:36:43;5.13;;;2.17;;
82242;SDS011;71844;51.528;4.442;2023-09-30T01:39:10;5.03;;;2.17;;
82242;SDS011;71844;51.528;4.442;2023-09-30T01:41:38;6.72;;;2.40;;
82242;SDS011;71844;51.528;4.442;2023-09-30T01:44:05;4.43;;;1.90;;
82242;SDS011;71844;51.528;4.442;2023-09-30T01:46:33;13.18;;;2.67;;
82242;SDS011;71844;51.528;4.442;2023-09-30T01:49:00;6.10;;;2.53;;
82242;SDS011;71844;51.528;4.442;2023-09-30T01:51:27;6.47;;;2.45;;
82242;SDS011;71844;51.528;4.442;2023-09-30T01:53:58;5.45;;;2.30;;
82242;SDS011;71844;51.528;4.442;2023-09-30T01:56:25;5.30;;;2.47;;
82242;SDS011;71844;51.528;4.442;2023-09-30T01:58:52;4.57;;;1.98;;
82242;SDS011;71844;51.528;4.442;2023-09-30T02:01:19;7.50;;;2.78;;
82242;SDS011;71844;51.528;4.442;2023-09-30T02:03:47;6.40;;;2.30;;
82242;SDS011;71844;51.528;4.442;2023-09-30T02:06:14;6.65;;;2.03;;
82242;SDS011;71844;51.528;4.442;2023-09-30T02:08:41;5.72;;;2.72;;
82242;SDS011;71844;51.528;4.442;2023-09-30T02:11:10;4.97;;;2.05;;
82242;SDS011;71844;51.528;4.442;2023-09-30T02:13:42;6.20;;;2.20;;
82242;SDS011;71844;51.528;4.442;2023-09-30T02:16:11;9.80;;;2.35;;
82242;SDS011;71844;51.528;4.442;2023-09-30T02:18:41;8.57;;;2.42;;
82242;SDS011;71844;51.528;4.442;2023-09-30T02:21:14;5.07;;;2.00;;
82242;SDS011;71844;51.528;4.442;2023-09-30T02:23:58;5.65;;;2.35;;
82242;SDS011;71844;51.528;4.442;2023-09-30T02:26:29;5.38;;;2.30;;
82242;SDS011;71844;51.528;4.442;2023-09-30T02:28:56;6.55;;;2.45;;
82242;SDS011;71844;51.528;4.442;2023-09-30T02:31:23;6.28;;;2.58;;
82242;SDS011;71844;51.528;4.442;2023-09-30T02:33:52;7.72;;;2.53;;
82242;SDS011;71844;51.528;4.442;2023-09-30T02:36:19;4.72;;;2.38;;
82242;SDS011;71844;51.528;4.442;2023-09-30T02:38:48;7.82;;;2.90;;
82242;SDS011;71844;51.528;4.442;2023-09-30T02:41:18;4.72;;;2.70;;
82242;SDS011;71844;51.528;4.442;2023-09-30T02:43:47;7.00;;;2.63;;
82242;SDS011;71844;51.528;4.442;2023-09-30T02:46:19;4.95;;;2.45;;
82242;SDS011;71844;51.528;4.442;2023-09-30T02:48:46;5.25;;;2.60;;
82242;SDS011;71844;51.528;4.442;2023-09-30T02:51:13;6.60;;;2.53;;
82242;SDS011;71844;51.528;4.442;2023-09-30T02:53:43;6.05;;;2.90;;
82242;SDS011;71844;51.528;4.442;2023-09-30T02:56:10;7.90;;;3.05;;
82242;SDS011;71844;51.528;4.442;2023-09-30T02:58:37;7.38;;;3.03;;
82242;SDS011;71844;51.528;4.442;2023-09-30T03:01:06;7.70;;;3.63;;
82242;SDS011;71844;51.528;4.442;2023-09-30T03:03:43;7.65;;;3.22;;
82242;SDS011;71844;51.528;4.442;2023-09-30T03:06:12;10.68;;;3.47;;
82242;SDS011;71844;51.528;4.442;2023-09-30T03:08:43;7.95;;;3.28;;
82242;SDS011;71844;51.528;4.442;2023-09-30T03:11:13;6.32;;;3.20;;
82242;SDS011;71844;51.528;4.442;2023-09-30T03:13:47;6.35;;;2.75;;
82242;SDS011;71844;51.528;4.442;2023-09-30T03:16:18;7.53;;;3.22;;
82242;SDS011;71844;51.528;4.442;2023-09-30T03:18:46;7.38;;;3.20;;
82242;SDS011;71844;51.528;4.442;2023-09-30T03:21:15;6.28;;;2.85;;
82242;SDS011;71844;51.528;4.442;2023-09-30T03:23:43;6.68;;;3.05;;
82242;SDS011;71844;51.528;4.442;2023-09-30T03:26:11;8.45;;;3.50;;
82242;SDS011;71844;51.528;4.442;2023-09-30T03:28:44;7.93;;;3.40;;
82242;SDS011;71844;51.528;4.442;2023-09-30T03:31:19;6.68;;;3.20;;
82242;SDS011;71844;51.528;4.442;2023-09-30T03:33:49;6.03;;;3.47;;
82242;SDS011;71844;51.528;4.442;2023-09-30T03:36:29;7.30;;;3.15;;
82242;SDS011;71844;51.528;4.442;2023-09-30T03:38:57;7.22;;;3.20;;
82242;SDS011;71844;51.528;4.442;2023-09-30T03:41:30;5.55;;;2.90;;
82242;SDS011;71844;51.528;4.442;2023-09-30T03:44:00;9.93;;;3.25;;
82242;SDS011;71844;51.528;4.442;2023-09-30T03:46:29;6.25;;;2.95;;
82242;SDS011;71844;51.528;4.442;2023-09-30T03:49:21;6.95;;;3.38;;
82242;SDS011;71844;51.528;4.442;2023-09-30T03:51:49;8.40;;;3.60;;
82242;SDS011;71844;51.528;4.442;2023-09-30T03:54:20;12.23;;;4.22;;
82242;SDS011;71844;51.528;4.442;2023-09-30T03:56:50;6.97;;;3.17;;
82242;SDS011;71844;51.528;4.442;2023-09-30T03:59:19;6.88;;;2.80;;
82242;SDS011;71844;51.528;4.442;2023-09-30T04:01:51;8.50;;;3.53;;
82242;SDS011;71844;51.528;4.442;2023-09-30T04:04:24;7.03;;;3.38;;
82242;SDS011;71844;51.528;4.442;2023-09-30T04:06:55;8.85;;;3.67;;
82242;SDS011;71844;51.528;4.442;2023-09-30T04:09:22;8.77;;;3.50;;
82242;SDS011;71844;51.528;4.442;2023-09-30T04:11:51;5.93;;;3.03;;
82242;SDS011;71844;51.528;4.442;2023-09-30T04:14:18;7.35;;;3.20;;
82242;SDS011;71844;51.528;4.442;2023-09-30T04:16:45;7.88;;;3.35;;
82242;SDS011;71844;51.528;4.442;2023-09-30T04:19:12;6.78;;;3.15;;
82242;SDS011;71844;51.528;4.442;2023-09-30T04:21:40;7.72;;;2.97;;
82242;SDS011;71844;51.528;4.442;2023-09-30T04:24:07;8.55;;;3.58;;
82242;SDS011;71844;51.528;4.442;2023-09-30T04:26:34;9.05;;;3.17;;
82242;SDS011;71844;51.528;4.442;2023-09-30T04:29:01;8.20;;;3.50;;
82242;SDS011;71844;51.528;4.442;2023-09-30T04:31:28;6.80;;;3.25;;
82242;SDS011;71844;51.528;4.442;2023-09-30T04:33:55;7.93;;;3.08;;
82242;SDS011;71844;51.528;4.442;2023-09-30T04:36:24;7.35;;;3.35;;
82242;SDS011;71844;51.528;4.442;2023-09-30T04:38:51;5.78;;;2.97;;
82242;SDS011;71844;51.528;4.442;2023-09-30T04:41:18;11.00;;;3.75;;
82242;SDS011;71844;51.528;4.442;2023-09-30T04:43:45;8.15;;;3.30;;
82242;SDS011;71844;51.528;4.442;2023-09-30T04:46:12;7.68;;;3.13;;
82242;SDS011;71844;51.528;4.442;2023-09-30T04:48:40;9.00;;;3.38;;
82242;SDS011;71844;51.528;4.442;2023-09-30T04:51:08;6.65;;;3.33;;
82242;SDS011;71844;51.528;4.442;2023-09-30T04:53:35;8.32;;;3.10;;
82242;SDS011;71844;51.528;4.442;2023-09-30T04:56:03;5.35;;;2.85;;
82242;SDS011;71844;51.528;4.442;2023-09-30T04:58:30;5.85;;;3.35;;
82242;SDS011;71844;51.528;4.442;2023-09-30T05:00:57;6.43;;;3.45;;
82242;SDS011;71844;51.528;4.442;2023-09-30T05:03:24;7.40;;;3.33;;
82242;SDS011;71844;51.528;4.442;2023-09-30T05:05:52;6.95;;;3.42;;
82242;SDS011;71844;51.528;4.442;2023-09-30T05:08:23;6.05;;;3.05;;
82242;SDS011;71844;51.528;4.442;2023-09-30T05:10:51;5.72;;;3.25;;
82242;SDS011;71844;51.528;4.442;2023-09-30T05:13:22;8.90;;;3.60;;
82242;SDS011;71844;51.528;4.442;2023-09-30T05:15:52;7.13;;;3.85;;
82242;SDS011;71844;51.528;4.442;2023-09-30T05:18:20;8.13;;;3.40;;
82242;SDS011;71844;51.528;4.442;2023-09-30T05:20:47;9.15;;;3.47;;
82242;SDS011;71844;51.528;4.442;2023-09-30T05:23:15;6.88;;;3.05;;
82242;SDS011;71844;51.528;4.442;2023-09-30T05:25:43;7.63;;;3.28;;
82242;SDS011;71844;51.528;4.442;2023-09-30T05:28:10;6.90;;;2.97;;
82242;SDS011;71844;51.528;4.442;2023-09-30T05:30:38;8.77;;;3.13;;
82242;SDS011;71844;51.528;4.442;2023-09-30T05:33:05;6.60;;;3.47;;
82242;SDS011;71844;51.528;4.442;2023-09-30T05:35:33;9.40;;;3.95;;
82242;SDS011;71844;51.528;4.442;2023-09-30T05:38:00;6.68;;;2.88;;
82242;SDS011;71844;51.528;4.442;2023-09-30T05:40:29;6.32;;;3.08;;
82242;SDS011;71844;51.528;4.442;2023-09-30T05:42:57;7.75;;;3.50;;
82242;SDS011;71844;51.528;4.442;2023-09-30T05:45:26;6.78;;;3.17;;
82242;SDS011;71844;51.528;4.442;2023-09-30T05:47:54;8.55;;;3.30;;
82242;SDS011;71844;51.528;4.442;2023-09-30T05:50:24;14.40;;;3.55;;
82242;SDS011;71844;51.528;4.442;2023-09-30T05:52:53;9.43;;;5.68;;
82242;SDS011;71844;51.528;4.442;2023-09-30T05:55:21;7.50;;;3.42;;
82242;SDS011;71844;51.528;4.442;2023-09-30T05:57:49;7.95;;;4.32;;
82242;SDS011;71844;51.528;4.442;2023-09-30T06:00:16;6.68;;;3.78;;
82242;SDS011;71844;51.528;4.442;2023-09-30T06:02:48;8.18;;;3.30;;
82242;SDS011;71844;51.528;4.442;2023-09-30T06:05:15;7.85;;;3.40;;
82242;SDS011;71844;51.528;4.442;2023-09-30T06:07:42;9.10;;;3.50;;
82242;SDS011;71844;51.528;4.442;2023-09-30T06:10:11;6.88;;;3.20;;
82242;SDS011;71844;51.528;4.442;2023-09-30T06:12:42;7.50;;;3.33;;
82242;SDS011;71844;51.528;4.442;2023-09-30T06:15:09;7.97;;;3.65;;
82242;SDS011;71844;51.528;4.442;2023-09-30T06:17:36;7.93;;;3.70;;
82242;SDS011;71844;51.528;4.442;2023-09-30T06:20:07;9.45;;;3.60;;
82242;SDS011;71844;51.528;4.442;2023-09-30T06:22:35;7.80;;;3.38;;
82242;SDS011;71844;51.528;4.442;2023-09-30T06:25:02;7.57;;;3.22;;
82242;SDS011;71844;51.528;4.442;2023-09-30T06:27:30;6.97;;;3.38;;
82242;SDS011;71844;51.528;4.442;2023-09-30T06:29:57;6.28;;;3.28;;
82242;SDS011;71844;51.528;4.442;2023-09-30T06:32:24;6.82;;;3.63;;
82242;SDS011;71844;51.528;4.442;2023-09-30T06:34:51;6.30;;;3.70;;
82242;SDS011;71844;51.528;4.442;2023-09-30T06:37:19;10.18;;;3.65;;
82242;SDS011;71844;51.528;4.442;2023-09-30T06:39:46;7.53;;;3.15;;
82242;SDS011;71844;51.528;4.442;2023-09-30T06:42:14;7.40;;;3.72;;
82242;SDS011;71844;51.528;4.442;2023-09-30T06:44:42;7.47;;;3.45;;
82242;SDS011;71844;51.528;4.442;2023-09-30T06:47:08;7.95;;;3.67;;
82242;SDS011;71844;51.528;4.442;2023-09-30T06:49:38;7.93;;;3.97;;
82242;SDS011;71844;51.528;4.442;2023-09-30T06:52:05;7.32;;;3.67;;
82242;SDS011;71844;51.528;4.442;2023-09-30T06:54:33;7.38;;;3.75;;
82242;SDS011;71844;51.528;4.442;2023-09-30T06:57:00;7.68;;;4.18;;
82242;SDS011;71844;51.528;4.442;2023-09-30T06:59:27;6.95;;;4.00;;
82242;SDS011;71844;51.528;4.442;2023-09-30T07:01:54;8.48;;;3.80;;
82242;SDS011;71844;51.528;4.442;2023-09-30T07:04:21;8.57;;;4.20;;
82242;SDS011;71844;51.528;4.442;2023-09-30T07:06:48;11.10;;;4.20;;
82242;SDS011;71844;51.528;4.442;2023-09-30T07:09:16;8.02;;;4.15;;
82242;SDS011;71844;51.528;4.442;2023-09-30T07:11:43;9.40;;;4.75;;
82242;SDS011;71844;51.528;4.442;2023-09-30T07:14:10;9.70;;;4.43;;
82242;SDS011;71844;51.528;4.442;2023-09-30T07:16:37;8.55;;;4.30;;
82242;SDS011;71844;51.528;4.442;2023-09-30T07:19:06;9.82;;;4.30;;
82242;SDS011;71844;51.528;4.442;2023-09-30T07:21:33;9.40;;;4.45;;
82242;SDS011;71844;51.528;4.442;2023-09-30T07:24:00;10.90;;;4.97;;
82242;SDS011;71844;51.528;4.442;2023-09-30T07:26:27;9.50;;;4.88;;
82242;SDS011;71844;51.528;4.442;2023-09-30T07:28:55;11.30;;;4.88;;
82242;SDS011;71844;51.528;4.442;2023-09-30T07:31:23;9.63;;;4.85;;
82242;SDS011;71844;51.528;4.442;2023-09-30T07:33:51;11.02;;;4.70;;
82242;SDS011;71844;51.528;4.442;2023-09-30T07:36:19;9.63;;;5.07;;
82242;SDS011;71844;51.528;4.442;2023-09-30T07:38:46;9.20;;;4.82;;
82242;SDS011;71844;51.528;4.442;2023-09-30T07:41:13;11.40;;;4.80;;
82242;SDS011;71844;51.528;4.442;2023-09-30T07:43:40;12.20;;;6.03;;
82242;SDS011;71844;51.528;4.442;2023-09-30T07:46:07;13.70;;;5.47;;
82242;SDS011;71844;51.528;4.442;2023-09-30T07:48:34;13.93;;;5.75;;
82242;SDS011;71844;51.528;4.442;2023-09-30T07:51:01;12.10;;;5.60;;
82242;SDS011;71844;51.528;4.442;2023-09-30T07:53:28;14.95;;;5.70;;
82242;SDS011;71844;51.528;4.442;2023-09-30T07:55:56;12.13;;;5.85;;
82242;SDS011;71844;51.528;4.442;2023-09-30T07:58:22;14.23;;;6.10;;
82242;SDS011;71844;51.528;4.442;2023-09-30T08:00:49;10.70;;;5.82;;
82242;SDS011;71844;51.528;4.442;2023-09-30T08:03:17;10.73;;;5.80;;
82242;SDS011;71844;51.528;4.442;2023-09-30T08:05:44;11.02;;;5.97;;
82242;SDS011;71844;51.528;4.442;2023-09-30T08:08:12;12.95;;;6.38;;
82242;SDS011;71844;51.528;4.442;2023-09-30T08:10:42;17.42;;;6.35;;
82242;SDS011;71844;51.528;4.442;2023-09-30T08:13:08;11.30;;;5.47;;
82242;SDS011;71844;51.528;4.442;2023-09-30T08:15:35;11.10;;;6.60;;
82242;SDS011;71844;51.528;4.442;2023-09-30T08:18:03;14.65;;;6.78;;
82242;SDS011;71844;51.528;4.442;2023-09-30T08:20:32;10.85;;;5.80;;
82242;SDS011;71844;51.528;4.442;2023-09-30T08:22:59;15.20;;;7.20;;
82242;SDS011;71844;51.528;4.442;2023-09-30T08:25:26;13.88;;;6.55;;
82242;SDS011;71844;51.528;4.442;2023-09-30T08:27:53;13.40;;;6.88;;
82242;SDS011;71844;51.528;4.442;2023-09-30T08:30:21;16.38;;;7.25;;
82242;SDS011;71844;51.528;4.442;2023-09-30T08:32:48;14.90;;;7.50;;
82242;SDS011;71844;51.528;4.442;2023-09-30T08:35:15;15.40;;;7.85;;
82242;SDS011;71844;51.528;4.442;2023-09-30T08:37:42;17.45;;;7.90;;
82242;SDS011;71844;51.528;4.442;2023-09-30T08:40:09;14.85;;;7.15;;
82242;SDS011;71844;51.528;4.442;2023-09-30T08:42:36;15.38;;;6.65;;
82242;SDS011;71844;51.528;4.442;2023-09-30T08:45:05;15.45;;;7.15;;
82242;SDS011;71844;51.528;4.442;2023-09-30T08:47:36;17.85;;;8.07;;
82242;SDS011;71844;51.528;4.442;2023-09-30T08:50:04;14.50;;;8.20;;
82242;SDS011;71844;51.528;4.442;2023-09-30T08:52:35;15.88;;;8.73;;
82242;SDS011;71844;51.528;4.442;2023-09-30T08:55:06;16.52;;;7.90;;
82242;SDS011;71844;51.528;4.442;2023-09-30T08:57:38;13.65;;;8.02;;
82242;SDS011;71844;51.528;4.442;2023-09-30T09:00:09;15.63;;;7.70;;
82242;SDS011;71844;51.528;4.442;2023-09-30T09:02:38;15.52;;;7.97;;
82242;SDS011;71844;51.528;4.442;2023-09-30T09:05:06;16.65;;;8.25;;
82242;SDS011;71844;51.528;4.442;2023-09-30T09:07:34;13.32;;;7.18;;
82242;SDS011;71844;51.528;4.442;2023-09-30T09:10:07;12.77;;;6.97;;
82242;SDS011;71844;51.528;4.442;2023-09-30T09:15:05;11.07;;;5.85;;
82242;SDS011;71844;51.528;4.442;2023-09-30T09:17:44;10.68;;;6.22;;
82242;SDS011;71844;51.528;4.442;2023-09-30T09:20:12;12.77;;;6.78;;
82242;SDS011;71844;51.528;4.442;2023-09-30T09:22:47;14.75;;;6.18;;
82242;SDS011;71844;51.528;4.442;2023-09-30T09:25:20;11.60;;;5.82;;
82242;SDS011;71844;51.528;4.442;2023-09-30T09:27:51;10.68;;;6.25;;
82242;SDS011;71844;51.528;4.442;2023-09-30T09:32:52;11.85;;;6.22;;
82242;SDS011;71844;51.528;4.442;2023-09-30T09:35:29;13.20;;;6.95;;
82242;SDS011;71844;51.528;4.442;2023-09-30T09:38:03;13.15;;;7.13;;
82242;SDS011;71844;51.528;4.442;2023-09-30T09:40:32;12.68;;;6.72;;
82242;SDS011;71844;51.528;4.442;2023-09-30T09:43:00;13.13;;;6.88;;
82242;SDS011;71844;51.528;4.442;2023-09-30T09:45:34;14.30;;;7.00;;
82242;SDS011;71844;51.528;4.442;2023-09-30T09:48:03;12.25;;;6.93;;
82242;SDS011;71844;51.528;4.442;2023-09-30T09:50:31;10.02;;;5.90;;
82242;SDS011;71844;51.528;4.442;2023-09-30T09:52:58;12.38;;;6.45;;
82242;SDS011;71844;51.528;4.442;2023-09-30T09:55:27;13.10;;;6.53;;
82242;SDS011;71844;51.528;4.442;2023-09-30T09:57:54;12.70;;;6.50;;
82242;SDS011;71844;51.528;4.442;2023-09-30T10:00:24;12.07;;;7.10;;
82242;SDS011;71844;51.528;4.442;2023-09-30T10:02:52;14.05;;;7.45;;
82242;SDS011;71844;51.528;4.442;2023-09-30T10:05:20;12.48;;;5.43;;
82242;SDS011;71844;51.528;4.442;2023-09-30T10:10:18;9.07;;;4.50;;
82242;SDS011;71844;51.528;4.442;2023-09-30T10:12:47;9.70;;;4.40;;
82242;SDS011;71844;51.528;4.442;2023-09-30T10:18:03;10.15;;;4.20;;
82242;SDS011;71844;51.528;4.442;2023-09-30T10:20:40;10.70;;;4.47;;
82242;SDS011;71844;51.528;4.442;2023-09-30T10:25:44;8.15;;;3.85;;
82242;SDS011;71844;51.528;4.442;2023-09-30T10:31:17;9.13;;;3.50;;
82242;SDS011;71844;51.528;4.442;2023-09-30T10:36:29;8.43;;;3.13;;
82242;SDS011;71844;51.528;4.442;2023-09-30T10:39:00;8.02;;;2.70;;
82242;SDS011;71844;51.528;4.442;2023-09-30T10:46:53;5.88;;;2.67;;
82242;SDS011;71844;51.528;4.442;2023-09-30T11:59:52;5.95;;;1.10;;
82242;SDS011;71844;51.528;4.442;2023-09-30T12:02:20;4.18;;;1.02;;
82242;SDS011;71844;51.528;4.442;2023-09-30T12:04:47;4.72;;;1.02;;
82242;SDS011;71844;51.528;4.442;2023-09-30T12:07:14;4.28;;;1.10;;
82242;SDS011;71844;51.528;4.442;2023-09-30T12:09:41;3.95;;;1.05;;
82242;SDS011;71844;51.528;4.442;2023-09-30T12:12:09;4.47;;;1.17;;
82242;SDS011;71844;51.528;4.442;2023-09-30T12:14:37;4.10;;;1.02;;
82242;SDS011;71844;51.528;4.442;2023-09-30T12:17:04;4.10;;;1.35;;
82242;SDS011;71844;51.528;4.442;2023-09-30T12:19:32;3.13;;;0.90;;
82242;SDS011;71844;51.528;4.442;2023-09-30T12:21:59;5.25;;;1.27;;
82242;SDS011;71844;51.528;4.442;2023-09-30T12:24:26;4.32;;;1.10;;
82242;SDS011;71844;51.528;4.442;2023-09-30T12:26:53;3.80;;;1.10;;
82242;SDS011;71844;51.528;4.442;2023-09-30T12:29:21;5.18;;;1.30;;
82242;SDS011;71844;51.528;4.442;2023-09-30T12:31:51;4.15;;;0.80;;
82242;SDS011;71844;51.528;4.442;2023-09-30T12:34:21;3.95;;;1.13;;
82242;SDS011;71844;51.528;4.442;2023-09-30T12:36:53;4.72;;;1.17;;
82242;SDS011;71844;51.528;4.442;2023-09-30T12:39:23;5.30;;;1.30;;
82242;SDS011;71844;51.528;4.442;2023-09-30T12:41:53;6.75;;;1.35;;
82242;SDS011;71844;51.528;4.442;2023-09-30T12:44:20;6.88;;;1.38;;
82242;SDS011;71844;51.528;4.442;2023-09-30T12:49:16;5.45;;;1.15;;
82242;SDS011;71844;51.528;4.442;2023-09-30T12:51:44;2.95;;;0.77;;
82242;SDS011;71844;51.528;4.442;2023-09-30T12:54:12;4.60;;;1.15;;
82242;SDS011;71844;51.528;4.442;2023-09-30T12:56:41;5.90;;;1.10;;
82242;SDS011;71844;51.528;4.442;2023-09-30T12:59:08;6.53;;;1.27;;
82242;SDS011;71844;51.528;4.442;2023-09-30T13:01:35;5.65;;;1.13;;
82242;SDS011;71844;51.528;4.442;2023-09-30T13:04:02;8.30;;;1.38;;
82242;SDS011;71844;51.528;4.442;2023-09-30T13:06:29;4.03;;;0.98;;
82242;SDS011;71844;51.528;4.442;2023-09-30T13:08:59;4.57;;;0.90;;
82242;SDS011;71844;51.528;4.442;2023-09-30T13:11:26;3.33;;;0.90;;
82242;SDS011;71844;51.528;4.442;2023-09-30T13:13:53;2.75;;;0.77;;
82242;SDS011;71844;51.528;4.442;2023-09-30T13:16:21;4.63;;;1.05;;
82242;SDS011;71844;51.528;4.442;2023-09-30T13:18:48;3.58;;;0.90;;
82242;SDS011;71844;51.528;4.442;2023-09-30T13:21:18;5.85;;;1.20;;
82242;SDS011;71844;51.528;4.442;2023-09-30T13:23:46;2.95;;;0.85;;
82242;SDS011;71844;51.528;4.442;2023-09-30T13:26:13;6.90;;;1.10;;
82242;SDS011;71844;51.528;4.442;2023-09-30T13:28:39;5.03;;;1.25;;
82242;SDS011;71844;51.528;4.442;2023-09-30T13:31:06;5.53;;;1.08;;
82242;SDS011;71844;51.528;4.442;2023-09-30T13:33:33;4.20;;;1.15;;
82242;SDS011;71844;51.528;4.442;2023-09-30T13:36:00;5.38;;;1.38;;
82242;SDS011;71844;51.528;4.442;2023-09-30T13:38:29;4.18;;;1.10;;
82242;SDS011;71844;51.528;4.442;2023-09-30T13:40:56;4.63;;;1.20;;
82242;SDS011;71844;51.528;4.442;2023-09-30T13:43:23;6.28;;;1.20;;
82242;SDS011;71844;51.528;4.442;2023-09-30T13:45:50;3.97;;;1.00;;
82242;SDS011;71844;51.528;4.442;2023-09-30T13:48:17;4.63;;;1.20;;
82242;SDS011;71844;51.528;4.442;2023-09-30T13:50:44;5.85;;;1.23;;
82242;SDS011;71844;51.528;4.442;2023-09-30T13:53:12;5.82;;;1.33;;
82242;SDS011;71844;51.528;4.442;2023-09-30T13:55:39;3.78;;;1.05;;
82242;SDS011;71844;51.528;4.442;2023-09-30T13:58:06;4.82;;;1.30;;
82242;SDS011;71844;51.528;4.442;2023-09-30T14:00:33;6.13;;;1.30;;
82242;SDS011;71844;51.528;4.442;2023-09-30T14:03:00;6.40;;;1.45;;
82242;SDS011;71844;51.528;4.442;2023-09-30T14:05:27;4.95;;;1.20;;
82242;SDS011;71844;51.528;4.442;2023-09-30T14:07:54;5.68;;;1.33;;
82242;SDS011;71844;51.528;4.442;2023-09-30T14:10:21;5.35;;;1.48;;
82242;SDS011;71844;51.528;4.442;2023-09-30T14:12:51;3.95;;;1.17;;
82242;SDS011;71844;51.528;4.442;2023-09-30T14:15:19;6.20;;;1.40;;
82242;SDS011;71844;51.528;4.442;2023-09-30T14:17:47;10.70;;;1.77;;
82242;SDS011;71844;51.528;4.442;2023-09-30T14:20:13;5.05;;;1.30;;
82242;SDS011;71844;51.528;4.442;2023-09-30T14:22:40;4.03;;;1.30;;
82242;SDS011;71844;51.528;4.442;2023-09-30T14:25:07;4.32;;;1.27;;
82242;SDS011;71844;51.528;4.442;2023-09-30T14:27:34;5.72;;;1.33;;
82242;SDS011;71844;51.528;4.442;2023-09-30T14:30:01;5.03;;;1.17;;
82242;SDS011;71844;51.528;4.442;2023-09-30T14:32:34;5.03;;;1.30;;
82242;SDS011;71844;51.528;4.442;2023-09-30T14:35:01;6.20;;;1.17;;
82242;SDS011;71844;51.528;4.442;2023-09-30T14:37:28;6.70;;;1.05;;
82242;SDS011;71844;51.528;4.442;2023-09-30T14:39:56;6.18;;;1.10;;
82242;SDS011;71844;51.528;4.442;2023-09-30T14:42:23;6.60;;;1.15;;
82242;SDS011;71844;51.528;4.442;2023-09-30T14:44:50;4.72;;;1.10;;
82242;SDS011;71844;51.528;4.442;2023-09-30T14:47:17;3.97;;;1.23;;
82242;SDS011;71844;51.528;4.442;2023-09-30T14:49:44;5.47;;;1.20;;
82242;SDS011;71844;51.528;4.442;2023-09-30T14:52:11;4.28;;;1.20;;
82242;SDS011;71844;51.528;4.442;2023-09-30T14:54:38;3.35;;;0.85;;
82242;SDS011;71844;51.528;4.442;2023-09-30T14:57:05;4.25;;;1.08;;
82242;SDS011;71844;51.528;4.442;2023-09-30T14:59:34;4.20;;;1.08;;
82242;SDS011;71844;51.528;4.442;2023-09-30T15:02:01;6.32;;;1.15;;
82242;SDS011;71844;51.528;4.442;2023-09-30T15:04:28;4.72;;;1.00;;
82242;SDS011;71844;51.528;4.442;2023-09-30T15:06:56;4.30;;;0.98;;
82242;SDS011;71844;51.528;4.442;2023-09-30T15:09:23;4.32;;;0.93;;
82242;SDS011;71844;51.528;4.442;2023-09-30T15:11:50;4.20;;;1.25;;
82242;SDS011;71844;51.528;4.442;2023-09-30T15:14:16;6.07;;;1.33;;
82242;SDS011;71844;51.528;4.442;2023-09-30T15:16:44;4.57;;;1.08;;
82242;SDS011;71844;51.528;4.442;2023-09-30T15:19:11;3.92;;;0.95;;
82242;SDS011;71844;51.528;4.442;2023-09-30T15:21:38;4.47;;;1.10;;
82242;SDS011;71844;51.528;4.442;2023-09-30T15:24:05;5.53;;;1.20;;
82242;SDS011;71844;51.528;4.442;2023-09-30T15:26:33;4.47;;;1.00;;
82242;SDS011;71844;51.528;4.442;2023-09-30T15:29:01;3.75;;;0.95;;
82242;SDS011;71844;51.528;4.442;2023-09-30T15:31:32;5.88;;;1.00;;
82242;SDS011;71844;51.528;4.442;2023-09-30T15:33:59;3.83;;;0.77;;
82242;SDS011;71844;51.528;4.442;2023-09-30T15:36:26;4.10;;;0.95;;
82242;SDS011;71844;51.528;4.442;2023-09-30T15:38:53;3.85;;;0.85;;
82242;SDS011;71844;51.528;4.442;2023-09-30T15:41:22;3.17;;;0.98;;
82242;SDS011;71844;51.528;4.442;2023-09-30T15:43:50;3.40;;;0.85;;
82242;SDS011;71844;51.528;4.442;2023-09-30T15:46:17;4.55;;;1.30;;
82242;SDS011;71844;51.528;4.442;2023-09-30T15:48:45;4.32;;;1.20;;
82242;SDS011;71844;51.528;4.442;2023-09-30T15:51:12;7.75;;;1.35;;
82242;SDS011;71844;51.528;4.442;2023-09-30T15:53:39;4.38;;;1.02;;
82242;SDS011;71844;51.528;4.442;2023-09-30T15:56:06;5.45;;;1.00;;
82242;SDS011;71844;51.528;4.442;2023-09-30T15:58:33;3.22;;;0.77;;
82242;SDS011;71844;51.528;4.442;2023-09-30T16:01:00;3.20;;;0.80;;
82242;SDS011;71844;51.528;4.442;2023-09-30T16:03:27;4.93;;;1.00;;
82242;SDS011;71844;51.528;4.442;2023-09-30T16:05:55;3.85;;;0.98;;
82242;SDS011;71844;51.528;4.442;2023-09-30T16:08:22;3.92;;;1.00;;
82242;SDS011;71844;51.528;4.442;2023-09-30T16:10:49;5.35;;;1.10;;
82242;SDS011;71844;51.528;4.442;2023-09-30T16:13:16;7.50;;;1.25;;
82242;SDS011;71844;51.528;4.442;2023-09-30T16:15:43;4.20;;;1.30;;
82242;SDS011;71844;51.528;4.442;2023-09-30T16:18:12;4.70;;;1.27;;
82242;SDS011;71844;51.528;4.442;2023-09-30T16:20:39;6.00;;;1.10;;
82242;SDS011;71844;51.528;4.442;2023-09-30T16:23:06;4.32;;;1.08;;
82242;SDS011;71844;51.528;4.442;2023-09-30T16:25:33;7.32;;;1.30;;
82242;SDS011;71844;51.528;4.442;2023-09-30T16:28:03;3.47;;;0.98;;
82242;SDS011;71844;51.528;4.442;2023-09-30T16:30:32;7.38;;;1.17;;